sensor_id;sensor_type;location;lat;lon;timestamp;temperature;humidity
19941;DHT22;10132;50.864;5.176;2023-02-07T00:01:50;2.20;99.90
19941;DHT22;10132;50.864;5.176;2023-02-07T00:03:52;2.20;99.90
19941;DHT22;10132;50.864;5.176;2023-02-07T00:06:04;2.20;99.90
19941;DHT22;10132;50.864;5.176;2023-02-07T00:08:06;2.10;99.90
19941;DHT22;10132;50.864;5.176;2023-02-07T00:10:08;2.00;99.90
19941;DHT22;10132;50.864;5.176;2023-02-07T00:12:12;1.90;99.90
19941;DHT22;10132;50.864;5.176;2023-02-07T00:14:14;1.90;99.90
19941;DHT22;10132;50.864;5.176;2023-02-07T00:16:16;1.90;99.90
19941;DHT22;10132;50.864;5.176;2023-02-07T00:18:18;1.90;99.90
19941;DHT22;10132;50.864;5.176;2023-02-07T00:20:20;1.80;99.90
19941;DHT22;10132;50.864;5.176;2023-02-07T00:22:24;1.90;99.90
19941;DHT22;10132;50.864;5.176;2023-02-07T00:24:26;1.90;99.90
19941;DHT22;10132;50.864;5.176;2023-02-07T00:26:29;1.90;99.90
19941;DHT22;10132;50.864;5.176;2023-02-07T00:28:32;1.90;99.90
19941;DHT22;10132;50.864;5.176;2023-02-07T00:30:35;1.90;99.90
19941;DHT22;10132;50.864;5.176;2023-02-07T00:32:37;2.00;99.90
19941;DHT22;10132;50.864;5.176;2023-02-07T00:34:39;1.80;99.90
19941;DHT22;10132;50.864;5.176;2023-02-07T00:36:41;1.70;99.90
19941;DHT22;10132;50.864;5.176;2023-02-07T00:38:44;1.70;99.90
19941;DHT22;10132;50.864;5.176;2023-02-07T00:40:46;1.70;99.90
19941;DHT22;10132;50.864;5.176;2023-02-07T00:42:48;1.80;99.90
19941;DHT22;10132;50.864;5.176;2023-02-07T00:44:51;1.80;99.90
19941;DHT22;10132;50.864;5.176;2023-02-07T00:46:53;1.80;99.90
19941;DHT22;10132;50.864;5.176;2023-02-07T00:48:55;1.70;99.90
19941;DHT22;10132;50.864;5.176;2023-02-07T00:50:57;1.70;99.90
19941;DHT22;10132;50.864;5.176;2023-02-07T00:53:00;1.70;99.90
19941;DHT22;10132;50.864;5.176;2023-02-07T00:55:02;1.70;99.90
19941;DHT22;10132;50.864;5.176;2023-02-07T00:57:04;1.50;99.90
19941;DHT22;10132;50.864;5.176;2023-02-07T00:59:06;1.50;99.90
19941;DHT22;10132;50.864;5.176;2023-02-07T01:01:09;1.60;99.90
19941;DHT22;10132;50.864;5.176;2023-02-07T01:03:11;1.50;99.90
19941;DHT22;10132;50.864;5.176;2023-02-07T01:05:13;1.50;99.90
19941;DHT22;10132;50.864;5.176;2023-02-07T01:07:15;1.60;99.90
19941;DHT22;10132;50.864;5.176;2023-02-07T01:09:17;1.50;99.90
19941;DHT22;10132;50.864;5.176;2023-02-07T01:11:19;1.40;99.90
19941;DHT22;10132;50.864;5.176;2023-02-07T01:13:21;1.30;99.90
19941;DHT22;10132;50.864;5.176;2023-02-07T01:15:23;1.30;99.90
19941;DHT22;10132;50.864;5.176;2023-02-07T01:17:26;1.30;99.90
19941;DHT22;10132;50.864;5.176;2023-02-07T01:19:28;1.20;99.90
19941;DHT22;10132;50.864;5.176;2023-02-07T01:21:30;1.20;99.90
19941;DHT22;10132;50.864;5.176;2023-02-07T01:23:32;1.20;99.90
19941;DHT22;10132;50.864;5.176;2023-02-07T01:25:36;1.20;99.90
19941;DHT22;10132;50.864;5.176;2023-02-07T01:27:38;1.10;99.90
19941;DHT22;10132;50.864;5.176;2023-02-07T01:29:40;1.10;99.90
19941;DHT22;10132;50.864;5.176;2023-02-07T01:31:42;0.90;99.90
19941;DHT22;10132;50.864;5.176;2023-02-07T01:33:45;0.80;99.90
19941;DHT22;10132;50.864;5.176;2023-02-07T01:35:47;0.80;99.90
19941;DHT22;10132;50.864;5.176;2023-02-07T01:37:49;0.70;99.90
19941;DHT22;10132;50.864;5.176;2023-02-07T01:39:51;0.70;99.90
19941;DHT22;10132;50.864;5.176;2023-02-07T01:41:54;0.80;99.90
19941;DHT22;10132;50.864;5.176;2023-02-07T01:43:59;0.70;99.90
19941;DHT22;10132;50.864;5.176;2023-02-07T01:46:01;0.70;99.90
19941;DHT22;10132;50.864;5.176;2023-02-07T01:48:07;0.80;99.90
19941;DHT22;10132;50.864;5.176;2023-02-07T01:50:13;0.80;99.90
19941;DHT22;10132;50.864;5.176;2023-02-07T01:52:17;0.90;99.90
19941;DHT22;10132;50.864;5.176;2023-02-07T01:54:21;0.80;99.90
19941;DHT22;10132;50.864;5.176;2023-02-07T01:56:24;0.80;99.90
19941;DHT22;10132;50.864;5.176;2023-02-07T01:58:27;0.80;99.90
19941;DHT22;10132;50.864;5.176;2023-02-07T02:00:30;0.80;99.90
19941;DHT22;10132;50.864;5.176;2023-02-07T02:02:34;0.80;99.90
19941;DHT22;10132;50.864;5.176;2023-02-07T02:04:37;0.70;99.90
19941;DHT22;10132;50.864;5.176;2023-02-07T02:06:40;0.80;99.90
19941;DHT22;10132;50.864;5.176;2023-02-07T02:08:43;0.90;99.90
19941;DHT22;10132;50.864;5.176;2023-02-07T02:11:09;0.70;99.90
19941;DHT22;10132;50.864;5.176;2023-02-07T02:13:20;0.60;99.90
19941;DHT22;10132;50.864;5.176;2023-02-07T02:15:31;0.50;99.90
19941;DHT22;10132;50.864;5.176;2023-02-07T02:17:46;0.50;99.90
19941;DHT22;10132;50.864;5.176;2023-02-07T02:20:13;0.60;99.90
19941;DHT22;10132;50.864;5.176;2023-02-07T02:22:34;0.70;99.90
19941;DHT22;10132;50.864;5.176;2023-02-07T02:25:11;0.80;99.90
19941;DHT22;10132;50.864;5.176;2023-02-07T02:27:30;0.80;99.90
19941;DHT22;10132;50.864;5.176;2023-02-07T02:34:53;0.70;99.90
19941;DHT22;10132;50.864;5.176;2023-02-07T02:37:02;0.80;99.90
19941;DHT22;10132;50.864;5.176;2023-02-07T02:39:12;0.80;99.90
19941;DHT22;10132;50.864;5.176;2023-02-07T02:41:22;0.80;99.90
19941;DHT22;10132;50.864;5.176;2023-02-07T02:43:30;0.80;99.90
19941;DHT22;10132;50.864;5.176;2023-02-07T02:45:38;0.80;99.90
19941;DHT22;10132;50.864;5.176;2023-02-07T02:47:44;0.80;99.90
19941;DHT22;10132;50.864;5.176;2023-02-07T02:49:47;0.70;99.90
19941;DHT22;10132;50.864;5.176;2023-02-07T02:51:51;0.70;99.90
19941;DHT22;10132;50.864;5.176;2023-02-07T02:53:54;0.50;99.90
19941;DHT22;10132;50.864;5.176;2023-02-07T02:59:08;0.50;99.90
19941;DHT22;10132;50.864;5.176;2023-02-07T03:01:20;0.50;99.90
19941;DHT22;10132;50.864;5.176;2023-02-07T03:06:04;0.30;99.90
19941;DHT22;10132;50.864;5.176;2023-02-07T03:08:15;0.10;99.90
19941;DHT22;10132;50.864;5.176;2023-02-07T03:10:29;0.10;99.90
19941;DHT22;10132;50.864;5.176;2023-02-07T03:12:38;0.10;99.90
19941;DHT22;10132;50.864;5.176;2023-02-07T03:14:50;0.00;99.90
19941;DHT22;10132;50.864;5.176;2023-02-07T03:16:58;0.10;99.90
19941;DHT22;10132;50.864;5.176;2023-02-07T03:19:06;-0.10;99.90
19941;DHT22;10132;50.864;5.176;2023-02-07T03:21:16;0.00;99.90
19941;DHT22;10132;50.864;5.176;2023-02-07T03:23:21;0.00;99.90
19941;DHT22;10132;50.864;5.176;2023-02-07T03:25:24;0.00;99.90
19941;DHT22;10132;50.864;5.176;2023-02-07T03:27:29;0.10;99.90
19941;DHT22;10132;50.864;5.176;2023-02-07T03:29:34;0.10;99.90
19941;DHT22;10132;50.864;5.176;2023-02-07T03:31:40;0.00;99.90
19941;DHT22;10132;50.864;5.176;2023-02-07T03:33:46;0.00;99.90
19941;DHT22;10132;50.864;5.176;2023-02-07T03:35:55;0.00;99.90
19941;DHT22;10132;50.864;5.176;2023-02-07T03:38:00;0.00;99.90
19941;DHT22;10132;50.864;5.176;2023-02-07T03:40:05;-0.10;99.90
19941;DHT22;10132;50.864;5.176;2023-02-07T03:42:12;-0.10;99.90
19941;DHT22;10132;50.864;5.176;2023-02-07T03:44:20;-0.20;99.90
19941;DHT22;10132;50.864;5.176;2023-02-07T03:46:23;-0.20;99.90
19941;DHT22;10132;50.864;5.176;2023-02-07T03:48:26;-0.20;99.90
19941;DHT22;10132;50.864;5.176;2023-02-07T03:50:28;-0.20;99.90
19941;DHT22;10132;50.864;5.176;2023-02-07T03:52:30;-0.30;99.90
19941;DHT22;10132;50.864;5.176;2023-02-07T03:54:31;-0.40;99.90
19941;DHT22;10132;50.864;5.176;2023-02-07T03:56:35;-0.40;99.90
19941;DHT22;10132;50.864;5.176;2023-02-07T03:58:37;-0.40;99.90
19941;DHT22;10132;50.864;5.176;2023-02-07T04:00:39;-0.30;99.90
19941;DHT22;10132;50.864;5.176;2023-02-07T04:02:41;-0.30;99.90
19941;DHT22;10132;50.864;5.176;2023-02-07T04:04:43;-0.40;99.90
19941;DHT22;10132;50.864;5.176;2023-02-07T04:06:45;-0.30;99.90
19941;DHT22;10132;50.864;5.176;2023-02-07T04:08:47;-0.20;99.90
19941;DHT22;10132;50.864;5.176;2023-02-07T04:10:56;-0.30;99.90
19941;DHT22;10132;50.864;5.176;2023-02-07T04:12:59;-0.40;99.90
19941;DHT22;10132;50.864;5.176;2023-02-07T04:15:03;-0.50;99.90
19941;DHT22;10132;50.864;5.176;2023-02-07T04:17:05;-0.50;99.90
19941;DHT22;10132;50.864;5.176;2023-02-07T04:19:07;-0.60;99.90
19941;DHT22;10132;50.864;5.176;2023-02-07T04:21:09;-0.70;99.90
19941;DHT22;10132;50.864;5.176;2023-02-07T04:23:11;-0.60;99.90
19941;DHT22;10132;50.864;5.176;2023-02-07T04:25:13;-0.50;99.90
19941;DHT22;10132;50.864;5.176;2023-02-07T04:27:15;-0.40;99.90
19941;DHT22;10132;50.864;5.176;2023-02-07T04:29:18;-0.50;99.90
19941;DHT22;10132;50.864;5.176;2023-02-07T04:31:20;-0.60;99.90
19941;DHT22;10132;50.864;5.176;2023-02-07T04:33:22;-0.60;99.90
19941;DHT22;10132;50.864;5.176;2023-02-07T04:35:24;-0.60;99.90
19941;DHT22;10132;50.864;5.176;2023-02-07T04:37:26;-0.70;99.90
19941;DHT22;10132;50.864;5.176;2023-02-07T04:39:29;-0.80;99.90
19941;DHT22;10132;50.864;5.176;2023-02-07T04:41:31;-0.70;99.90
19941;DHT22;10132;50.864;5.176;2023-02-07T04:43:34;-0.80;99.90
19941;DHT22;10132;50.864;5.176;2023-02-07T04:45:38;-0.90;99.90
19941;DHT22;10132;50.864;5.176;2023-02-07T04:47:40;-0.90;99.90
19941;DHT22;10132;50.864;5.176;2023-02-07T04:49:42;-0.70;99.90
19941;DHT22;10132;50.864;5.176;2023-02-07T04:51:44;-0.60;99.90
19941;DHT22;10132;50.864;5.176;2023-02-07T04:53:46;-0.60;99.90
19941;DHT22;10132;50.864;5.176;2023-02-07T04:55:48;-0.60;99.90
19941;DHT22;10132;50.864;5.176;2023-02-07T04:57:51;-0.60;99.90
19941;DHT22;10132;50.864;5.176;2023-02-07T04:59:53;-0.70;99.90
19941;DHT22;10132;50.864;5.176;2023-02-07T05:01:56;-0.80;99.90
19941;DHT22;10132;50.864;5.176;2023-02-07T05:03:58;-0.80;99.90
19941;DHT22;10132;50.864;5.176;2023-02-07T05:06:00;-0.70;99.90
19941;DHT22;10132;50.864;5.176;2023-02-07T05:08:02;-0.60;99.90
19941;DHT22;10132;50.864;5.176;2023-02-07T05:10:05;-0.50;99.90
19941;DHT22;10132;50.864;5.176;2023-02-07T05:12:07;-0.50;99.90
19941;DHT22;10132;50.864;5.176;2023-02-07T05:14:09;-0.50;99.90
19941;DHT22;10132;50.864;5.176;2023-02-07T05:16:11;-0.60;99.90
19941;DHT22;10132;50.864;5.176;2023-02-07T05:18:14;-0.70;99.90
19941;DHT22;10132;50.864;5.176;2023-02-07T05:20:16;-0.80;99.90
19941;DHT22;10132;50.864;5.176;2023-02-07T05:22:18;-0.90;99.90
19941;DHT22;10132;50.864;5.176;2023-02-07T05:24:20;-0.80;99.90
19941;DHT22;10132;50.864;5.176;2023-02-07T05:26:22;-0.70;99.90
19941;DHT22;10132;50.864;5.176;2023-02-07T05:28:24;-0.70;99.90
19941;DHT22;10132;50.864;5.176;2023-02-07T05:30:26;-0.80;99.90
19941;DHT22;10132;50.864;5.176;2023-02-07T05:32:28;-0.80;99.90
19941;DHT22;10132;50.864;5.176;2023-02-07T05:34:49;-0.90;99.90
19941;DHT22;10132;50.864;5.176;2023-02-07T05:36:51;-1.00;99.90
19941;DHT22;10132;50.864;5.176;2023-02-07T05:38:52;-1.00;99.90
19941;DHT22;10132;50.864;5.176;2023-02-07T05:40:54;-1.30;99.90
19941;DHT22;10132;50.864;5.176;2023-02-07T05:42:57;-1.50;99.90
19941;DHT22;10132;50.864;5.176;2023-02-07T05:44:59;-1.50;99.90
19941;DHT22;10132;50.864;5.176;2023-02-07T05:47:01;-1.50;99.90
19941;DHT22;10132;50.864;5.176;2023-02-07T05:49:03;-1.40;99.90
19941;DHT22;10132;50.864;5.176;2023-02-07T05:51:06;-1.40;99.90
19941;DHT22;10132;50.864;5.176;2023-02-07T05:53:09;-1.40;99.90
19941;DHT22;10132;50.864;5.176;2023-02-07T05:55:11;-1.30;99.90
19941;DHT22;10132;50.864;5.176;2023-02-07T05:57:13;-1.20;99.90
19941;DHT22;10132;50.864;5.176;2023-02-07T05:59:15;-1.30;99.90
19941;DHT22;10132;50.864;5.176;2023-02-07T06:01:17;-1.20;99.90
19941;DHT22;10132;50.864;5.176;2023-02-07T06:03:19;-1.00;99.90
19941;DHT22;10132;50.864;5.176;2023-02-07T06:05:22;-1.20;99.90
19941;DHT22;10132;50.864;5.176;2023-02-07T06:07:25;-1.30;99.90
19941;DHT22;10132;50.864;5.176;2023-02-07T06:09:27;-1.20;99.90
19941;DHT22;10132;50.864;5.176;2023-02-07T06:11:29;-1.20;99.90
19941;DHT22;10132;50.864;5.176;2023-02-07T06:13:31;-1.30;99.90
19941;DHT22;10132;50.864;5.176;2023-02-07T06:15:33;-1.30;99.90
19941;DHT22;10132;50.864;5.176;2023-02-07T06:17:35;-1.30;99.90
19941;DHT22;10132;50.864;5.176;2023-02-07T06:19:37;-1.30;99.90
19941;DHT22;10132;50.864;5.176;2023-02-07T06:21:39;-1.30;99.90
19941;DHT22;10132;50.864;5.176;2023-02-07T06:23:43;-1.50;99.90
19941;DHT22;10132;50.864;5.176;2023-02-07T06:25:46;-1.70;99.90
19941;DHT22;10132;50.864;5.176;2023-02-07T06:27:48;-1.60;99.90
19941;DHT22;10132;50.864;5.176;2023-02-07T06:29:50;-1.50;99.90
19941;DHT22;10132;50.864;5.176;2023-02-07T06:31:52;-1.60;99.90
19941;DHT22;10132;50.864;5.176;2023-02-07T06:33:54;-1.70;99.90
19941;DHT22;10132;50.864;5.176;2023-02-07T06:35:56;-1.70;99.90
19941;DHT22;10132;50.864;5.176;2023-02-07T06:37:58;-1.70;99.90
19941;DHT22;10132;50.864;5.176;2023-02-07T06:40:02;-1.80;99.90
19941;DHT22;10132;50.864;5.176;2023-02-07T06:42:04;-1.80;99.90
19941;DHT22;10132;50.864;5.176;2023-02-07T06:44:06;-1.90;99.90
19941;DHT22;10132;50.864;5.176;2023-02-07T06:46:08;-1.90;99.90
19941;DHT22;10132;50.864;5.176;2023-02-07T06:48:10;-1.90;99.90
19941;DHT22;10132;50.864;5.176;2023-02-07T06:50:12;-1.80;99.90
19941;DHT22;10132;50.864;5.176;2023-02-07T06:52:14;-1.70;99.90
19941;DHT22;10132;50.864;5.176;2023-02-07T06:54:16;-1.70;99.90
19941;DHT22;10132;50.864;5.176;2023-02-07T06:56:20;-1.70;99.90
19941;DHT22;10132;50.864;5.176;2023-02-07T06:58:22;-1.70;99.90
19941;DHT22;10132;50.864;5.176;2023-02-07T07:00:24;-1.70;99.90
19941;DHT22;10132;50.864;5.176;2023-02-07T07:02:26;-1.80;99.90
19941;DHT22;10132;50.864;5.176;2023-02-07T07:04:28;-1.90;99.90
19941;DHT22;10132;50.864;5.176;2023-02-07T07:06:31;-1.90;99.90
19941;DHT22;10132;50.864;5.176;2023-02-07T07:08:33;-1.70;99.90
19941;DHT22;10132;50.864;5.176;2023-02-07T07:10:35;-1.70;99.90
19941;DHT22;10132;50.864;5.176;2023-02-07T07:12:38;-1.70;99.90
19941;DHT22;10132;50.864;5.176;2023-02-07T07:14:40;-1.80;99.90
19941;DHT22;10132;50.864;5.176;2023-02-07T07:16:42;-1.80;99.90
19941;DHT22;10132;50.864;5.176;2023-02-07T07:18:44;-1.90;99.90
19941;DHT22;10132;50.864;5.176;2023-02-07T07:20:46;-1.90;99.90
19941;DHT22;10132;50.864;5.176;2023-02-07T07:22:53;-1.80;99.90
19941;DHT22;10132;50.864;5.176;2023-02-07T07:24:55;-1.70;99.90
19941;DHT22;10132;50.864;5.176;2023-02-07T07:26:57;-1.60;99.90
19941;DHT22;10132;50.864;5.176;2023-02-07T07:29:00;-1.60;99.90
19941;DHT22;10132;50.864;5.176;2023-02-07T07:31:03;-1.50;99.90
19941;DHT22;10132;50.864;5.176;2023-02-07T07:33:06;-1.40;99.90
19941;DHT22;10132;50.864;5.176;2023-02-07T07:35:08;-1.20;99.90
19941;DHT22;10132;50.864;5.176;2023-02-07T07:37:11;-1.10;99.90
19941;DHT22;10132;50.864;5.176;2023-02-07T07:39:13;-0.90;99.90
19941;DHT22;10132;50.864;5.176;2023-02-07T07:41:16;-0.90;99.90
19941;DHT22;10132;50.864;5.176;2023-02-07T07:43:18;-0.80;99.90
19941;DHT22;10132;50.864;5.176;2023-02-07T07:45:22;-0.80;99.90
19941;DHT22;10132;50.864;5.176;2023-02-07T07:47:24;-0.60;99.90
19941;DHT22;10132;50.864;5.176;2023-02-07T07:49:27;-0.50;99.90
19941;DHT22;10132;50.864;5.176;2023-02-07T07:51:29;-0.60;99.90
19941;DHT22;10132;50.864;5.176;2023-02-07T07:53:31;-0.40;99.90
19941;DHT22;10132;50.864;5.176;2023-02-07T07:55:33;-0.30;99.90
19941;DHT22;10132;50.864;5.176;2023-02-07T07:57:35;-0.30;99.90
19941;DHT22;10132;50.864;5.176;2023-02-07T07:59:37;-0.20;99.90
19941;DHT22;10132;50.864;5.176;2023-02-07T08:01:40;-0.10;99.90
19941;DHT22;10132;50.864;5.176;2023-02-07T08:03:42;0.00;99.90
19941;DHT22;10132;50.864;5.176;2023-02-07T08:05:45;0.00;99.90
19941;DHT22;10132;50.864;5.176;2023-02-07T08:07:47;0.00;99.90
19941;DHT22;10132;50.864;5.176;2023-02-07T08:09:50;0.20;99.90
19941;DHT22;10132;50.864;5.176;2023-02-07T08:11:52;0.40;99.90
19941;DHT22;10132;50.864;5.176;2023-02-07T08:13:54;0.50;99.90
19941;DHT22;10132;50.864;5.176;2023-02-07T08:15:56;0.60;99.90
19941;DHT22;10132;50.864;5.176;2023-02-07T08:17:59;0.80;99.90
19941;DHT22;10132;50.864;5.176;2023-02-07T08:20:01;0.80;99.90
19941;DHT22;10132;50.864;5.176;2023-02-07T08:22:04;0.80;99.90
19941;DHT22;10132;50.864;5.176;2023-02-07T08:24:06;0.70;99.90
19941;DHT22;10132;50.864;5.176;2023-02-07T08:26:08;0.90;99.90
19941;DHT22;10132;50.864;5.176;2023-02-07T08:28:10;1.30;99.90
19941;DHT22;10132;50.864;5.176;2023-02-07T08:30:13;1.50;99.90
19941;DHT22;10132;50.864;5.176;2023-02-07T08:32:15;1.70;99.90
19941;DHT22;10132;50.864;5.176;2023-02-07T08:34:18;1.80;99.90
19941;DHT22;10132;50.864;5.176;2023-02-07T08:36:23;2.10;99.90
19941;DHT22;10132;50.864;5.176;2023-02-07T08:38:26;2.10;99.90
19941;DHT22;10132;50.864;5.176;2023-02-07T08:40:28;2.20;99.90
19941;DHT22;10132;50.864;5.176;2023-02-07T08:42:30;2.20;99.90
19941;DHT22;10132;50.864;5.176;2023-02-07T08:44:32;2.10;99.90
19941;DHT22;10132;50.864;5.176;2023-02-07T08:46:34;2.10;99.90
19941;DHT22;10132;50.864;5.176;2023-02-07T08:48:36;2.10;99.90
19941;DHT22;10132;50.864;5.176;2023-02-07T08:50:40;2.20;99.90
19941;DHT22;10132;50.864;5.176;2023-02-07T08:52:42;2.30;99.90
19941;DHT22;10132;50.864;5.176;2023-02-07T08:54:44;2.30;99.90
19941;DHT22;10132;50.864;5.176;2023-02-07T08:56:46;2.30;99.90
19941;DHT22;10132;50.864;5.176;2023-02-07T08:58:48;2.40;99.90
19941;DHT22;10132;50.864;5.176;2023-02-07T09:00:50;2.40;99.90
19941;DHT22;10132;50.864;5.176;2023-02-07T09:02:52;2.40;99.90
19941;DHT22;10132;50.864;5.176;2023-02-07T09:04:54;2.40;99.90
19941;DHT22;10132;50.864;5.176;2023-02-07T09:06:58;2.30;99.90
19941;DHT22;10132;50.864;5.176;2023-02-07T09:09:00;2.50;99.90
19941;DHT22;10132;50.864;5.176;2023-02-07T09:11:02;2.60;99.90
19941;DHT22;10132;50.864;5.176;2023-02-07T09:13:04;2.70;99.90
19941;DHT22;10132;50.864;5.176;2023-02-07T09:15:07;2.80;99.90
19941;DHT22;10132;50.864;5.176;2023-02-07T09:17:09;3.00;99.90
19941;DHT22;10132;50.864;5.176;2023-02-07T09:19:11;2.70;99.90
19941;DHT22;10132;50.864;5.176;2023-02-07T09:21:13;2.70;99.90
19941;DHT22;10132;50.864;5.176;2023-02-07T09:23:16;2.90;99.90
19941;DHT22;10132;50.864;5.176;2023-02-07T09:25:18;3.00;99.90
19941;DHT22;10132;50.864;5.176;2023-02-07T09:27:20;2.90;99.90
19941;DHT22;10132;50.864;5.176;2023-02-07T09:29:23;2.90;99.90
19941;DHT22;10132;50.864;5.176;2023-02-07T09:31:25;2.90;99.90
19941;DHT22;10132;50.864;5.176;2023-02-07T09:33:27;3.00;99.90
19941;DHT22;10132;50.864;5.176;2023-02-07T09:35:29;3.30;99.90
19941;DHT22;10132;50.864;5.176;2023-02-07T09:37:31;3.40;99.90
19941;DHT22;10132;50.864;5.176;2023-02-07T09:39:36;3.40;99.90
19941;DHT22;10132;50.864;5.176;2023-02-07T09:41:49;3.40;99.90
19941;DHT22;10132;50.864;5.176;2023-02-07T09:44:02;3.50;99.90
19941;DHT22;10132;50.864;5.176;2023-02-07T09:46:10;3.50;99.90
19941;DHT22;10132;50.864;5.176;2023-02-07T09:48:15;3.60;99.90
19941;DHT22;10132;50.864;5.176;2023-02-07T09:50:21;3.60;99.90
19941;DHT22;10132;50.864;5.176;2023-02-07T09:52:28;3.80;99.90
19941;DHT22;10132;50.864;5.176;2023-02-07T09:54:36;4.10;99.90
19941;DHT22;10132;50.864;5.176;2023-02-07T09:56:40;4.00;99.90
19941;DHT22;10132;50.864;5.176;2023-02-07T09:58:45;3.90;99.90
19941;DHT22;10132;50.864;5.176;2023-02-07T10:00:55;3.90;99.90
19941;DHT22;10132;50.864;5.176;2023-02-07T10:03:07;4.00;99.90
19941;DHT22;10132;50.864;5.176;2023-02-07T10:05:15;4.60;99.90
19941;DHT22;10132;50.864;5.176;2023-02-07T10:07:17;4.60;99.90
19941;DHT22;10132;50.864;5.176;2023-02-07T10:09:23;4.70;99.90
19941;DHT22;10132;50.864;5.176;2023-02-07T10:11:36;5.20;99.90
19941;DHT22;10132;50.864;5.176;2023-02-07T10:13:54;5.10;99.90
19941;DHT22;10132;50.864;5.176;2023-02-07T10:16:12;5.50;99.90
19941;DHT22;10132;50.864;5.176;2023-02-07T10:18:31;5.30;99.90
19941;DHT22;10132;50.864;5.176;2023-02-07T10:20:38;5.10;99.90
19941;DHT22;10132;50.864;5.176;2023-02-07T10:22:47;4.90;99.90
19941;DHT22;10132;50.864;5.176;2023-02-07T10:25:18;4.90;99.90
19941;DHT22;10132;50.864;5.176;2023-02-07T10:27:28;4.90;99.90
19941;DHT22;10132;50.864;5.176;2023-02-07T10:29:48;5.10;99.90
19941;DHT22;10132;50.864;5.176;2023-02-07T10:31:54;5.20;99.90
19941;DHT22;10132;50.864;5.176;2023-02-07T10:34:00;5.20;99.90
19941;DHT22;10132;50.864;5.176;2023-02-07T10:36:03;5.30;99.90
19941;DHT22;10132;50.864;5.176;2023-02-07T10:38:20;5.40;99.90
19941;DHT22;10132;50.864;5.176;2023-02-07T10:40:27;5.40;99.90
19941;DHT22;10132;50.864;5.176;2023-02-07T10:42:32;5.50;99.90
19941;DHT22;10132;50.864;5.176;2023-02-07T10:44:36;5.80;99.90
19941;DHT22;10132;50.864;5.176;2023-02-07T10:46:40;6.00;99.90
19941;DHT22;10132;50.864;5.176;2023-02-07T10:48:43;6.20;99.90
19941;DHT22;10132;50.864;5.176;2023-02-07T10:50:45;6.30;99.90
19941;DHT22;10132;50.864;5.176;2023-02-07T10:52:49;6.60;99.90
19941;DHT22;10132;50.864;5.176;2023-02-07T10:54:54;6.90;99.90
19941;DHT22;10132;50.864;5.176;2023-02-07T10:56:58;6.90;99.90
19941;DHT22;10132;50.864;5.176;2023-02-07T10:59:02;6.80;99.90
19941;DHT22;10132;50.864;5.176;2023-02-07T11:01:04;6.70;99.90
19941;DHT22;10132;50.864;5.176;2023-02-07T11:03:10;6.80;99.90
19941;DHT22;10132;50.864;5.176;2023-02-07T11:05:51;6.70;99.90
19941;DHT22;10132;50.864;5.176;2023-02-07T11:07:58;6.60;99.90
19941;DHT22;10132;50.864;5.176;2023-02-07T11:10:15;6.80;99.90
19941;DHT22;10132;50.864;5.176;2023-02-07T11:12:21;7.10;99.90
19941;DHT22;10132;50.864;5.176;2023-02-07T11:14:25;7.20;99.90
19941;DHT22;10132;50.864;5.176;2023-02-07T11:16:28;7.40;99.90
19941;DHT22;10132;50.864;5.176;2023-02-07T11:18:41;7.70;99.90
19941;DHT22;10132;50.864;5.176;2023-02-07T11:20:48;8.20;99.90
19941;DHT22;10132;50.864;5.176;2023-02-07T11:22:52;8.70;99.90
19941;DHT22;10132;50.864;5.176;2023-02-07T11:25:03;8.70;99.90
19941;DHT22;10132;50.864;5.176;2023-02-07T11:27:10;8.80;99.90
19941;DHT22;10132;50.864;5.176;2023-02-07T11:29:15;8.90;99.90
19941;DHT22;10132;50.864;5.176;2023-02-07T11:31:25;8.80;99.90
19941;DHT22;10132;50.864;5.176;2023-02-07T11:33:30;8.30;99.90
19941;DHT22;10132;50.864;5.176;2023-02-07T11:35:33;7.70;99.90
19941;DHT22;10132;50.864;5.176;2023-02-07T11:37:37;7.50;99.90
19941;DHT22;10132;50.864;5.176;2023-02-07T11:39:42;7.50;99.90
19941;DHT22;10132;50.864;5.176;2023-02-07T11:41:53;7.40;99.90
19941;DHT22;10132;50.864;5.176;2023-02-07T11:44:00;7.50;99.90
19941;DHT22;10132;50.864;5.176;2023-02-07T11:46:08;7.70;99.90
19941;DHT22;10132;50.864;5.176;2023-02-07T11:48:18;8.00;99.90
19941;DHT22;10132;50.864;5.176;2023-02-07T11:50:25;8.70;99.90
19941;DHT22;10132;50.864;5.176;2023-02-07T11:52:30;8.60;99.90
19941;DHT22;10132;50.864;5.176;2023-02-07T11:54:33;8.80;99.90
19941;DHT22;10132;50.864;5.176;2023-02-07T11:56:38;9.00;99.90
19941;DHT22;10132;50.864;5.176;2023-02-07T11:58:42;9.00;99.90
19941;DHT22;10132;50.864;5.176;2023-02-07T12:00:49;9.10;99.90
19941;DHT22;10132;50.864;5.176;2023-02-07T12:02:58;9.30;99.90
19941;DHT22;10132;50.864;5.176;2023-02-07T12:05:16;9.30;99.90
19941;DHT22;10132;50.864;5.176;2023-02-07T12:07:22;9.00;99.90
19941;DHT22;10132;50.864;5.176;2023-02-07T12:09:32;8.90;99.90
19941;DHT22;10132;50.864;5.176;2023-02-07T12:11:38;9.00;99.90
19941;DHT22;10132;50.864;5.176;2023-02-07T12:13:44;8.70;99.90
19941;DHT22;10132;50.864;5.176;2023-02-07T12:15:50;8.60;99.90
19941;DHT22;10132;50.864;5.176;2023-02-07T12:17:57;8.40;99.90
19941;DHT22;10132;50.864;5.176;2023-02-07T12:20:05;8.40;99.90
19941;DHT22;10132;50.864;5.176;2023-02-07T12:22:15;8.30;99.90
19941;DHT22;10132;50.864;5.176;2023-02-07T12:24:23;8.60;99.90
19941;DHT22;10132;50.864;5.176;2023-02-07T12:26:29;9.10;99.90
19941;DHT22;10132;50.864;5.176;2023-02-07T12:28:36;9.00;99.90
19941;DHT22;10132;50.864;5.176;2023-02-07T12:30:43;9.20;99.90
19941;DHT22;10132;50.864;5.176;2023-02-07T12:32:50;9.50;99.90
19941;DHT22;10132;50.864;5.176;2023-02-07T12:34:59;9.80;99.90
19941;DHT22;10132;50.864;5.176;2023-02-07T12:37:07;10.20;99.90
19941;DHT22;10132;50.864;5.176;2023-02-07T12:39:18;10.60;99.90
19941;DHT22;10132;50.864;5.176;2023-02-07T12:41:25;10.70;99.90
19941;DHT22;10132;50.864;5.176;2023-02-07T12:43:30;10.20;99.90
19941;DHT22;10132;50.864;5.176;2023-02-07T12:45:50;9.70;99.90
19941;DHT22;10132;50.864;5.176;2023-02-07T12:47:58;9.30;99.90
19941;DHT22;10132;50.864;5.176;2023-02-07T12:50:18;9.60;99.90
19941;DHT22;10132;50.864;5.176;2023-02-07T12:52:29;10.00;99.90
19941;DHT22;10132;50.864;5.176;2023-02-07T12:54:48;9.80;99.90
19941;DHT22;10132;50.864;5.176;2023-02-07T12:56:56;9.80;99.90
19941;DHT22;10132;50.864;5.176;2023-02-07T12:59:11;10.20;99.90
19941;DHT22;10132;50.864;5.176;2023-02-07T13:01:19;10.30;99.90
19941;DHT22;10132;50.864;5.176;2023-02-07T13:03:35;10.40;99.90
19941;DHT22;10132;50.864;5.176;2023-02-07T13:05:59;10.40;99.90
19941;DHT22;10132;50.864;5.176;2023-02-07T13:08:10;10.60;99.90
19941;DHT22;10132;50.864;5.176;2023-02-07T13:10:28;10.90;99.90
19941;DHT22;10132;50.864;5.176;2023-02-07T13:12:39;11.10;99.90
19941;DHT22;10132;50.864;5.176;2023-02-07T13:14:57;11.10;99.90
19941;DHT22;10132;50.864;5.176;2023-02-07T13:17:22;11.10;99.90
19941;DHT22;10132;50.864;5.176;2023-02-07T13:19:35;11.20;99.90
19941;DHT22;10132;50.864;5.176;2023-02-07T13:21:43;11.10;99.90
19941;DHT22;10132;50.864;5.176;2023-02-07T13:23:48;11.00;99.90
19941;DHT22;10132;50.864;5.176;2023-02-07T13:25:55;11.00;99.90
19941;DHT22;10132;50.864;5.176;2023-02-07T13:28:04;10.70;99.90
19941;DHT22;10132;50.864;5.176;2023-02-07T13:30:13;10.40;99.90